Airfield :
LOGIN :

Register | Disclaimer

   EN    FR    IT 

 










Legend :    VFR   Marginal VFR   IFR   Intensive IFR   Very Intensive IFR
Visi :
Ceiling :
>= 8 km
>= 3000ft
5 to 8 km
1000 to 3000 ft
1500m to 5 km
500 to 1000 ft
800 to 1500m
200 to 500 ft
< 800m
< 200 ft
Symbols :   Thunderstorms  Fog  Heavy snow  Heavy precipitations  Wind > 20 kt
SIGMETs :     Misc.  Thunderstorms  Icing  Turbulence  Mountain Waves  Volcanic Ashes






- Airport Elevation : 231 ft
- IATA code : WTN


EGXW - RAF Waddington

CURRENT METAR :
  • 201150Z 20024KT 9999 BKN012 11/09 Q0982 NOSIG RMK GRN GRN

EXPIRED METARs :
  • 201120Z 20021KT 9999 BKN012 11/09 Q0983 NOSIG RMK GRN GRN
  • 201050Z 20022KT 9999 -RA BKN014 BKN021 11/09 Q0983 TEMPO 5000 RA RMK GRN TEMPO GRN
  • 201020Z 20023KT 9999 -RA BKN013 BKN022 11/09 Q0984 TEMPO 5000 RA RMK GRN TEMPO GRN
  • 200950Z 20021KT 9999 -RA BKN014 BKN024 11/09 Q0984 TEMPO 5000 RA RMK GRN TEMPO GRN
  • 200920Z 20021KT 9999 -RA FEW012 BKN015 BKN035 11/09 Q0984 TEMPO 5000 RA BKN012 RMK WHT TEMPO GRN

TAF TAF EGXW
Valid from the 20 at 12:00 until the 21 at 06:00 UTC


201022Z 2012/2106 20022G32KT 9999 -RA BKN018
PROB40 2012/2022 BKN012
PROB30
TEMPO 2012/2022 5000 RA
TEMPO 2022/2101 3000 +RA BKN012
BECMG 2023/2101 27017G27KT
PROB30
TEMPO 2023/2101 2000 +RA
PROB30 2100/2102 BKN003
BECMG 2102/2104 NSW SCT025
PROB30
TEMPO 2102/2106 SCT014



MET'MAP, your aeronautical weather chart ! - Copyright ORBIFLY December 2007 - Disclaimer

ORBIFLY MET'MAP TEAM :

Programming & Development : Alexandra Zaïnal
Concept & original design : Baudouin d'Aumeries
Assistance for programming : Marc-Olivier Méhu
Technical & hardware support : Manuel Goepfert

Contact : metmap@orbifly.com




SOURCES & CREDITS :

   NOAA